Kilmaurs, United Kingdom
Current Conditions -  °F | °C
As of 11:50 PM on Thursday 18 Dec 2014 (Local Time) from EGPK Reporting Station
Light Rain Light Rain  
Wind Chill: 36°   Ceiling: Unl
Heat Index: 45°   Visibility: 6mi
Dew Point: 39°   Wind: 24mph
Humidity: 81%   Direction: 250°WSW
Pressure: 29.53"   Gusts: 39mph
Location:  55.64°N, 4.53°W
Report Text: EGPK 182350Z 25021G34KT 9999 -RA SCT022 SCT028 07/04 Q1000
Loading
Personal Weather Stations






























Interactive Weather Map New forecast layout! Learn more

10-Day Weather Forecast

Advertisements
Track Severe Weather on mobile